الصفحة الرئيسية
METAR-TAF:

METAR-TAF

مطار :

مطار دوشانبي الدولي

دوشنبه, طاجيكستان

دائرة عرض: 38-33N, خط طول: 068-47E, ارتفاع: 803 متر

مراقبة الطقس الحالي

تاريخ ووقت الإصدار 26 دقيقة قبل الساعة 23:00UTC
ريح 2 عقدة من الشمال
درجة الحرارة 6°درجة مئوية
الرطوبة 81%
ضغط 1023 hPa
الرؤية 10 كم أو أكثر

METAR: UTDD 202300Z 01001MPS 9999 NSC 06/03 Q1023 R09/D NOSIG RMK QFE698/0931

زمن: 04:26 (23:26 UTC)

توقعات

تاريخ ووقت الإصدار 2ساعات و 26 دقيقة قبل الساعة 21:00UTC
التوقعات صالحة من20 الساعة 22 UTC إلى 21 الساعة 10 UTC
ريح 4 عقدةمن اتجاهات متغيرة
الرؤية: 6000 متر
غيوم قليلة على ارتفاع 6600 قدم
غيوم متفرقة على ارتفاع 15000 قدم
مؤقت
من 20 الساعة 22 UTC إلى 21 الساعة 05 UTC
الرؤية: 3100 متر
غشاء, دخان

TAF: UTDD 202100Z 2022/2110 VRB02MPS 6000 FEW066 SCT150 TEMPO 2022/2105 3100 BR FU

أرصاد الطقس والتوقعات من أكثر من 4000 مطار (تقارير الطقس للمطار METAR والتنبؤ بالطقس بالمطارTAF).

المحطات المتاحة هي النقط الصفراء والحمراء على الخريطة.

حرك المؤشر فوق النقطة لمعرفة اسم المحطة.

ثم انقر لمعرفة أرصاد وتوقعات الطقس.

لتغيير الخارطة: اضغط على الأزرار الخضراء مع رمز الصليب الأسود للتكبير. على الزر الأخضر مع شرطة للتصغير، أو على الأسهم الخضراء للخرائط المجاورة.


METAR-TAF: